sensor_id;sensor_type;location;lat;lon;timestamp;pressure;altitude;pressure_sealevel;temperature
69857;BMP280;57147;53.582;10.112;2023-09-19T00:01:23;100196.13;;;17.51
69857;BMP280;57147;53.582;10.112;2023-09-19T00:06:24;100212.38;;;17.59
69857;BMP280;57147;53.582;10.112;2023-09-19T00:11:27;100226.22;;;17.61
69857;BMP280;57147;53.582;10.112;2023-09-19T00:16:28;100231.00;;;17.51
69857;BMP280;57147;53.582;10.112;2023-09-19T00:21:31;100183.78;;;17.12
69857;BMP280;57147;53.582;10.112;2023-09-19T00:26:34;100219.75;;;17.46
69857;BMP280;57147;53.582;10.112;2023-09-19T00:31:35;100219.28;;;17.40
69857;BMP280;57147;53.582;10.112;2023-09-19T00:36:35;100189.84;;;17.09
69857;BMP280;57147;53.582;10.112;2023-09-19T00:41:39;100218.56;;;17.43
69857;BMP280;57147;53.582;10.112;2023-09-19T00:46:39;100233.91;;;17.43
69857;BMP280;57147;53.582;10.112;2023-09-19T00:51:40;100236.22;;;17.44
69857;BMP280;57147;53.582;10.112;2023-09-19T00:56:44;100244.97;;;17.41
69857;BMP280;57147;53.582;10.112;2023-09-19T01:01:44;100241.88;;;17.39
69857;BMP280;57147;53.582;10.112;2023-09-19T01:06:45;100234.94;;;17.38
69857;BMP280;57147;53.582;10.112;2023-09-19T01:11:50;100199.88;;;17.12
69857;BMP280;57147;53.582;10.112;2023-09-19T01:16:57;100227.03;;;17.26
69857;BMP280;57147;53.582;10.112;2023-09-19T01:22:07;100240.47;;;17.45
69857;BMP280;57147;53.582;10.112;2023-09-19T01:27:28;100259.22;;;17.26
69857;BMP280;57147;53.582;10.112;2023-09-19T01:32:40;100262.16;;;17.21
69857;BMP280;57147;53.582;10.112;2023-09-19T01:37:42;100274.59;;;17.29
69857;BMP280;57147;53.582;10.112;2023-09-19T01:42:45;100279.28;;;17.32
69857;BMP280;57147;53.582;10.112;2023-09-19T01:47:51;100276.16;;;17.30
69857;BMP280;57147;53.582;10.112;2023-09-19T01:52:56;100280.69;;;17.26
69857;BMP280;57147;53.582;10.112;2023-09-19T01:58:02;100292.94;;;17.27
69857;BMP280;57147;53.582;10.112;2023-09-19T02:03:08;100165.19;;;16.37
69857;BMP280;57147;53.582;10.112;2023-09-19T02:08:09;100316.09;;;17.16
69857;BMP280;57147;53.582;10.112;2023-09-19T02:13:10;100321.88;;;17.18
69857;BMP280;57147;53.582;10.112;2023-09-19T02:18:13;100324.13;;;17.16
69857;BMP280;57147;53.582;10.112;2023-09-19T02:23:14;100324.13;;;17.16
69857;BMP280;57147;53.582;10.112;2023-09-19T02:28:15;100290.16;;;16.89
69857;BMP280;57147;53.582;10.112;2023-09-19T02:33:18;100330.16;;;17.13
69857;BMP280;57147;53.582;10.112;2023-09-19T02:38:19;100292.66;;;16.82
69857;BMP280;57147;53.582;10.112;2023-09-19T02:43:20;100294.16;;;16.79
69857;BMP280;57147;53.582;10.112;2023-09-19T02:48:23;100324.81;;;17.13
69857;BMP280;57147;53.582;10.112;2023-09-19T02:53:24;100346.25;;;17.13
69857;BMP280;57147;53.582;10.112;2023-09-19T02:58:25;100344.38;;;17.14
69857;BMP280;57147;53.582;10.112;2023-09-19T03:03:28;100323.78;;;17.02
69857;BMP280;57147;53.582;10.112;2023-09-19T03:08:29;100334.25;;;17.07
69857;BMP280;57147;53.582;10.112;2023-09-19T03:13:31;100307.78;;;16.90
69857;BMP280;57147;53.582;10.112;2023-09-19T03:18:34;100352.00;;;16.96
69857;BMP280;57147;53.582;10.112;2023-09-19T03:23:35;100340.91;;;16.82
69857;BMP280;57147;53.582;10.112;2023-09-19T03:28:36;100348.78;;;16.90
69857;BMP280;57147;53.582;10.112;2023-09-19T03:33:39;100351.16;;;16.92
69857;BMP280;57147;53.582;10.112;2023-09-19T03:38:40;100358.75;;;16.90
69857;BMP280;57147;53.582;10.112;2023-09-19T03:43:40;100351.66;;;16.82
69857;BMP280;57147;53.582;10.112;2023-09-19T03:48:43;100361.00;;;16.88
69857;BMP280;57147;53.582;10.112;2023-09-19T03:53:44;100374.81;;;16.90
69857;BMP280;57147;53.582;10.112;2023-09-19T03:58:44;100381.38;;;16.77
69857;BMP280;57147;53.582;10.112;2023-09-19T04:03:48;100377.22;;;16.63
69857;BMP280;57147;53.582;10.112;2023-09-19T04:08:48;100360.75;;;16.49
69857;BMP280;57147;53.582;10.112;2023-09-19T04:13:49;100379.34;;;16.58
69857;BMP280;57147;53.582;10.112;2023-09-19T04:18:52;100409.63;;;16.46
69857;BMP280;57147;53.582;10.112;2023-09-19T04:23:53;100396.97;;;16.31
69857;BMP280;57147;53.582;10.112;2023-09-19T04:28:53;100394.09;;;16.12
69857;BMP280;57147;53.582;10.112;2023-09-19T04:33:56;100414.53;;;16.16
69857;BMP280;57147;53.582;10.112;2023-09-19T04:38:57;100436.28;;;16.15
69857;BMP280;57147;53.582;10.112;2023-09-19T04:43:57;100434.19;;;16.08
69857;BMP280;57147;53.582;10.112;2023-09-19T04:49:01;100446.38;;;16.06
69857;BMP280;57147;53.582;10.112;2023-09-19T04:54:02;100400.19;;;15.72
69857;BMP280;57147;53.582;10.112;2023-09-19T04:59:02;100417.25;;;15.56
69857;BMP280;57147;53.582;10.112;2023-09-19T05:04:05;100443.22;;;15.67
69857;BMP280;57147;53.582;10.112;2023-09-19T05:09:06;100446.38;;;15.69
69857;BMP280;57147;53.582;10.112;2023-09-19T05:14:07;100445.13;;;15.67
69857;BMP280;57147;53.582;10.112;2023-09-19T05:19:10;100451.38;;;15.71
69857;BMP280;57147;53.582;10.112;2023-09-19T05:24:11;100427.59;;;15.45
69857;BMP280;57147;53.582;10.112;2023-09-19T05:29:11;100478.03;;;15.80
69857;BMP280;57147;53.582;10.112;2023-09-19T05:34:15;100480.94;;;15.74
69857;BMP280;57147;53.582;10.112;2023-09-19T05:39:15;100469.88;;;15.64
69857;BMP280;57147;53.582;10.112;2023-09-19T05:44:17;100474.00;;;15.61
69857;BMP280;57147;53.582;10.112;2023-09-19T05:49:20;100467.63;;;15.54
69857;BMP280;57147;53.582;10.112;2023-09-19T05:54:21;100435.81;;;15.28
69857;BMP280;57147;53.582;10.112;2023-09-19T05:59:21;100486.25;;;15.62
69857;BMP280;57147;53.582;10.112;2023-09-19T06:04:25;100459.72;;;15.45
69857;BMP280;57147;53.582;10.112;2023-09-19T06:09:25;100487.66;;;15.81
69857;BMP280;57147;53.582;10.112;2023-09-19T06:14:26;100476.59;;;15.82
69857;BMP280;57147;53.582;10.112;2023-09-19T06:19:29;100489.66;;;15.84
69857;BMP280;57147;53.582;10.112;2023-09-19T06:24:30;100497.34;;;15.97
69857;BMP280;57147;53.582;10.112;2023-09-19T06:29:30;100494.81;;;16.01
69857;BMP280;57147;53.582;10.112;2023-09-19T06:34:33;100513.75;;;15.96
69857;BMP280;57147;53.582;10.112;2023-09-19T06:39:34;100501.91;;;15.97
69857;BMP280;57147;53.582;10.112;2023-09-19T06:44:34;100489.19;;;15.94
69857;BMP280;57147;53.582;10.112;2023-09-19T06:49:38;100504.84;;;16.04
69857;BMP280;57147;53.582;10.112;2023-09-19T06:54:38;100510.16;;;16.16
69857;BMP280;57147;53.582;10.112;2023-09-19T06:59:39;100506.03;;;16.18
69857;BMP280;57147;53.582;10.112;2023-09-19T07:04:42;100509.03;;;16.17
69857;BMP280;57147;53.582;10.112;2023-09-19T07:09:43;100522.44;;;16.29
69857;BMP280;57147;53.582;10.112;2023-09-19T07:14:44;100528.69;;;16.33
69857;BMP280;57147;53.582;10.112;2023-09-19T07:19:48;100539.41;;;16.33
69857;BMP280;57147;53.582;10.112;2023-09-19T07:24:48;100543.41;;;16.27
69857;BMP280;57147;53.582;10.112;2023-09-19T07:29:49;100533.16;;;16.29
69857;BMP280;57147;53.582;10.112;2023-09-19T07:34:52;100545.41;;;16.42
69857;BMP280;57147;53.582;10.112;2023-09-19T07:39:54;100553.22;;;16.47
69857;BMP280;57147;53.582;10.112;2023-09-19T07:44:54;100560.81;;;16.57
69857;BMP280;57147;53.582;10.112;2023-09-19T07:49:58;100561.16;;;16.56
69857;BMP280;57147;53.582;10.112;2023-09-19T07:54:58;100557.81;;;16.47
69857;BMP280;57147;53.582;10.112;2023-09-19T07:59:59;100561.50;;;16.42
69857;BMP280;57147;53.582;10.112;2023-09-19T08:05:02;100585.34;;;15.87
69857;BMP280;57147;53.582;10.112;2023-09-19T08:10:03;100606.38;;;15.43
69857;BMP280;57147;53.582;10.112;2023-09-19T08:15:05;100602.69;;;15.36
69857;BMP280;57147;53.582;10.112;2023-09-19T08:20:10;100617.81;;;15.52
69857;BMP280;57147;53.582;10.112;2023-09-19T08:25:12;100599.63;;;15.79
69857;BMP280;57147;53.582;10.112;2023-09-19T08:30:13;100602.56;;;15.98
69857;BMP280;57147;53.582;10.112;2023-09-19T08:35:16;100598.44;;;16.12
69857;BMP280;57147;53.582;10.112;2023-09-19T08:40:17;100598.34;;;16.21
69857;BMP280;57147;53.582;10.112;2023-09-19T08:45:18;100573.47;;;16.20
69857;BMP280;57147;53.582;10.112;2023-09-19T08:50:26;100589.63;;;16.48
69857;BMP280;57147;53.582;10.112;2023-09-19T08:55:28;100390.81;;;15.30
69857;BMP280;57147;53.582;10.112;2023-09-19T09:00:30;100517.53;;;16.07
69857;BMP280;57147;53.582;10.112;2023-09-19T09:05:35;100510.16;;;16.16
69857;BMP280;57147;53.582;10.112;2023-09-19T09:10:37;100543.63;;;16.46
69857;BMP280;57147;53.582;10.112;2023-09-19T09:15:38;100441.25;;;16.01
69857;BMP280;57147;53.582;10.112;2023-09-19T09:20:41;100540.66;;;16.76
69857;BMP280;57147;53.582;10.112;2023-09-19T09:25:49;100565.69;;;16.92
69857;BMP280;57147;53.582;10.112;2023-09-19T09:30:50;100572.75;;;17.00
69857;BMP280;57147;53.582;10.112;2023-09-19T09:35:54;100480.41;;;16.57
69857;BMP280;57147;53.582;10.112;2023-09-19T09:40:56;100551.75;;;17.02
69857;BMP280;57147;53.582;10.112;2023-09-19T09:46:07;100548.13;;;17.22
69857;BMP280;57147;53.582;10.112;2023-09-19T09:51:11;100543.81;;;17.33
69857;BMP280;57147;53.582;10.112;2023-09-19T09:56:11;100530.84;;;17.35
69857;BMP280;57147;53.582;10.112;2023-09-19T10:01:12;100518.91;;;17.48
69857;BMP280;57147;53.582;10.112;2023-09-19T10:06:16;100499.25;;;17.44
69857;BMP280;57147;53.582;10.112;2023-09-19T10:11:17;100505.75;;;17.59
69857;BMP280;57147;53.582;10.112;2023-09-19T10:16:19;100542.31;;;17.64
69857;BMP280;57147;53.582;10.112;2023-09-19T10:21:22;100488.41;;;17.57
69857;BMP280;57147;53.582;10.112;2023-09-19T10:26:23;100543.66;;;17.89
69857;BMP280;57147;53.582;10.112;2023-09-19T10:31:25;100530.41;;;17.96
69857;BMP280;57147;53.582;10.112;2023-09-19T10:36:32;100524.22;;;18.11
69857;BMP280;57147;53.582;10.112;2023-09-19T10:41:34;100519.03;;;17.87
69857;BMP280;57147;53.582;10.112;2023-09-19T10:46:36;100494.16;;;17.71
69857;BMP280;57147;53.582;10.112;2023-09-19T10:51:42;100541.41;;;17.91
69857;BMP280;57147;53.582;10.112;2023-09-19T10:56:46;100496.66;;;17.64
69857;BMP280;57147;53.582;10.112;2023-09-19T11:01:50;100527.03;;;17.83
69857;BMP280;57147;53.582;10.112;2023-09-19T11:07:03;100523.41;;;17.76
69857;BMP280;57147;53.582;10.112;2023-09-19T11:12:05;100538.53;;;17.84
69857;BMP280;57147;53.582;10.112;2023-09-19T11:28:34;100549.28;;;18.15
69857;BMP280;57147;53.582;10.112;2023-09-19T11:33:35;100564.94;;;18.29
69857;BMP280;57147;53.582;10.112;2023-09-19T11:39:00;100568.41;;;18.29
69857;BMP280;57147;53.582;10.112;2023-09-19T11:49:33;100567.31;;;18.15
69857;BMP280;57147;53.582;10.112;2023-09-19T11:54:35;100590.88;;;18.21
69857;BMP280;57147;53.582;10.112;2023-09-19T11:59:38;100558.44;;;18.30
69857;BMP280;57147;53.582;10.112;2023-09-19T12:04:42;100549.94;;;18.43
69857;BMP280;57147;53.582;10.112;2023-09-19T12:09:44;100557.94;;;18.59
69857;BMP280;57147;53.582;10.112;2023-09-19T12:14:47;100557.22;;;18.62
69857;BMP280;57147;53.582;10.112;2023-09-19T12:19:56;100552.28;;;18.64
69857;BMP280;57147;53.582;10.112;2023-09-19T12:25:05;100564.09;;;18.79
69857;BMP280;57147;53.582;10.112;2023-09-19T12:30:07;100571.59;;;18.70
69857;BMP280;57147;53.582;10.112;2023-09-19T12:35:26;100566.50;;;18.65
69857;BMP280;57147;53.582;10.112;2023-09-19T12:40:28;100552.75;;;18.70
69857;BMP280;57147;53.582;10.112;2023-09-19T12:45:29;100536.13;;;18.83
69857;BMP280;57147;53.582;10.112;2023-09-19T12:50:33;100557.41;;;18.92
69857;BMP280;57147;53.582;10.112;2023-09-19T12:55:34;100576.97;;;18.89
69857;BMP280;57147;53.582;10.112;2023-09-19T13:00:36;100514.13;;;18.59
69857;BMP280;57147;53.582;10.112;2023-09-19T13:05:55;100536.63;;;18.89
69857;BMP280;57147;53.582;10.112;2023-09-19T13:11:07;100571.44;;;19.01
69857;BMP280;57147;53.582;10.112;2023-09-19T13:16:08;100548.38;;;19.00
69857;BMP280;57147;53.582;10.112;2023-09-19T13:21:12;100576.44;;;19.22
69857;BMP280;57147;53.582;10.112;2023-09-19T13:26:13;100555.84;;;19.29
69857;BMP280;57147;53.582;10.112;2023-09-19T13:31:14;100549.09;;;19.39
69857;BMP280;57147;53.582;10.112;2023-09-19T13:36:17;100556.03;;;19.40
69857;BMP280;57147;53.582;10.112;2023-09-19T13:41:17;100461.97;;;19.05
69857;BMP280;57147;53.582;10.112;2023-09-19T13:46:18;100523.19;;;19.54
69857;BMP280;57147;53.582;10.112;2023-09-19T13:51:21;100555.94;;;19.82
69857;BMP280;57147;53.582;10.112;2023-09-19T13:56:22;100533.88;;;19.99
69857;BMP280;57147;53.582;10.112;2023-09-19T14:01:23;100508.06;;;19.98
69857;BMP280;57147;53.582;10.112;2023-09-19T14:06:26;100526.41;;;20.15
69857;BMP280;57147;53.582;10.112;2023-09-19T14:11:27;100531.59;;;20.01
69857;BMP280;57147;53.582;10.112;2023-09-19T14:16:27;100515.94;;;19.84
69857;BMP280;57147;53.582;10.112;2023-09-19T14:21:30;100538.22;;;19.81
69857;BMP280;57147;53.582;10.112;2023-09-19T14:26:31;100523.41;;;19.94
69857;BMP280;57147;53.582;10.112;2023-09-19T14:31:32;100482.47;;;19.59
69857;BMP280;57147;53.582;10.112;2023-09-19T14:36:35;100503.81;;;19.97
69857;BMP280;57147;53.582;10.112;2023-09-19T14:41:36;100507.03;;;20.06
69857;BMP280;57147;53.582;10.112;2023-09-19T14:46:36;100509.00;;;19.83
69857;BMP280;57147;53.582;10.112;2023-09-19T14:51:40;100501.22;;;19.78
69857;BMP280;57147;53.582;10.112;2023-09-19T14:56:40;100495.22;;;19.62
69857;BMP280;57147;53.582;10.112;2023-09-19T15:01:41;100490.75;;;19.47
69857;BMP280;57147;53.582;10.112;2023-09-19T15:06:44;100496.63;;;19.29
69857;BMP280;57147;53.582;10.112;2023-09-19T15:11:45;100477.94;;;19.17
69857;BMP280;57147;53.582;10.112;2023-09-19T15:16:46;100431.41;;;18.94
69857;BMP280;57147;53.582;10.112;2023-09-19T15:21:49;100474.91;;;19.19
69857;BMP280;57147;53.582;10.112;2023-09-19T15:26:50;100481.66;;;19.09
69857;BMP280;57147;53.582;10.112;2023-09-19T15:31:50;100494.47;;;18.97
69857;BMP280;57147;53.582;10.112;2023-09-19T15:36:53;100471.50;;;18.99
69857;BMP280;57147;53.582;10.112;2023-09-19T15:41:54;100462.41;;;19.07
69857;BMP280;57147;53.582;10.112;2023-09-19T15:46:54;100427.53;;;18.91
69857;BMP280;57147;53.582;10.112;2023-09-19T15:51:58;100425.06;;;18.83
69857;BMP280;57147;53.582;10.112;2023-09-19T15:56:59;100452.16;;;18.93
69857;BMP280;57147;53.582;10.112;2023-09-19T16:02:00;100446.59;;;18.83
69857;BMP280;57147;53.582;10.112;2023-09-19T16:07:03;100452.03;;;18.86
69857;BMP280;57147;53.582;10.112;2023-09-19T16:12:05;100433.50;;;18.81
69857;BMP280;57147;53.582;10.112;2023-09-19T16:17:05;100438.81;;;18.78
69857;BMP280;57147;53.582;10.112;2023-09-19T16:22:09;100454.03;;;18.70
69857;BMP280;57147;53.582;10.112;2023-09-19T16:27:09;100450.88;;;18.65
69857;BMP280;57147;53.582;10.112;2023-09-19T16:32:10;100415.31;;;18.52
69857;BMP280;57147;53.582;10.112;2023-09-19T16:37:13;100455.53;;;18.68
69857;BMP280;57147;53.582;10.112;2023-09-19T16:42:14;100417.94;;;18.49
69857;BMP280;57147;53.582;10.112;2023-09-19T16:47:14;100389.34;;;18.21
69857;BMP280;57147;53.582;10.112;2023-09-19T16:52:17;100466.44;;;18.56
69857;BMP280;57147;53.582;10.112;2023-09-19T16:57:19;100442.69;;;18.38
69857;BMP280;57147;53.582;10.112;2023-09-19T17:02:19;100434.16;;;18.36
69857;BMP280;57147;53.582;10.112;2023-09-19T17:07:23;100472.09;;;18.51
69857;BMP280;57147;53.582;10.112;2023-09-19T17:12:23;100448.75;;;18.55
69857;BMP280;57147;53.582;10.112;2023-09-19T17:17:27;100447.50;;;18.49
69857;BMP280;57147;53.582;10.112;2023-09-19T17:22:30;100405.47;;;18.21
69857;BMP280;57147;53.582;10.112;2023-09-19T17:27:31;100438.88;;;18.39
69857;BMP280;57147;53.582;10.112;2023-09-19T17:32:31;100454.41;;;18.50
69857;BMP280;57147;53.582;10.112;2023-09-19T17:37:35;100475.91;;;18.50
69857;BMP280;57147;53.582;10.112;2023-09-19T17:42:36;100469.69;;;18.45
69857;BMP280;57147;53.582;10.112;2023-09-19T17:47:40;100417.47;;;18.08
69857;BMP280;57147;53.582;10.112;2023-09-19T17:52:43;100420.03;;;18.20
69857;BMP280;57147;53.582;10.112;2023-09-19T17:57:43;100468.13;;;18.44
69857;BMP280;57147;53.582;10.112;2023-09-19T18:02:44;100421.00;;;18.12
69857;BMP280;57147;53.582;10.112;2023-09-19T18:07:47;100471.19;;;18.43
69857;BMP280;57147;53.582;10.112;2023-09-19T18:12:48;100426.25;;;18.24
69857;BMP280;57147;53.582;10.112;2023-09-19T18:17:48;100467.44;;;18.47
69857;BMP280;57147;53.582;10.112;2023-09-19T18:22:52;100481.16;;;18.42
69857;BMP280;57147;53.582;10.112;2023-09-19T18:27:52;100481.16;;;18.42
69857;BMP280;57147;53.582;10.112;2023-09-19T18:32:53;100470.41;;;18.42
69857;BMP280;57147;53.582;10.112;2023-09-19T18:37:56;100469.69;;;18.45
69857;BMP280;57147;53.582;10.112;2023-09-19T18:42:57;100470.81;;;18.44
69857;BMP280;57147;53.582;10.112;2023-09-19T18:47:57;100474.94;;;18.38
69857;BMP280;57147;53.582;10.112;2023-09-19T18:53:00;100437.53;;;18.14
69857;BMP280;57147;53.582;10.112;2023-09-19T18:58:01;100485.75;;;18.42
69857;BMP280;57147;53.582;10.112;2023-09-19T19:03:02;100435.44;;;18.04
69857;BMP280;57147;53.582;10.112;2023-09-19T19:08:05;100464.19;;;18.38
69857;BMP280;57147;53.582;10.112;2023-09-19T19:13:06;100471.81;;;18.36
69857;BMP280;57147;53.582;10.112;2023-09-19T19:18:08;100477.25;;;18.40
69857;BMP280;57147;53.582;10.112;2023-09-19T19:23:21;100472.66;;;18.40
69857;BMP280;57147;53.582;10.112;2023-09-19T19:28:22;100474.06;;;18.34
69857;BMP280;57147;53.582;10.112;2023-09-19T19:33:25;100478.75;;;18.37
69857;BMP280;57147;53.582;10.112;2023-09-19T19:38:29;100491.78;;;18.35
69857;BMP280;57147;53.582;10.112;2023-09-19T19:43:29;100490.88;;;18.31
69857;BMP280;57147;53.582;10.112;2023-09-19T19:48:33;100486.66;;;18.30
69857;BMP280;57147;53.582;10.112;2023-09-19T19:53:37;100485.09;;;18.29
69857;BMP280;57147;53.582;10.112;2023-09-19T19:58:39;100482.41;;;18.29
69857;BMP280;57147;53.582;10.112;2023-09-19T20:03:39;100455.94;;;18.12
69857;BMP280;57147;53.582;10.112;2023-09-19T20:08:43;100484.66;;;18.27
69857;BMP280;57147;53.582;10.112;2023-09-19T20:13:43;100486.94;;;18.25
69857;BMP280;57147;53.582;10.112;2023-09-19T20:18:44;100472.56;;;18.18
69857;BMP280;57147;53.582;10.112;2023-09-19T20:23:47;100479.16;;;18.20
69857;BMP280;57147;53.582;10.112;2023-09-19T20:28:48;100483.81;;;18.23
69857;BMP280;57147;53.582;10.112;2023-09-19T20:33:48;100489.13;;;18.20
69857;BMP280;57147;53.582;10.112;2023-09-19T20:38:52;100490.75;;;18.24
69857;BMP280;57147;53.582;10.112;2023-09-19T20:43:52;100489.91;;;18.20
69857;BMP280;57147;53.582;10.112;2023-09-19T20:48:53;100446.72;;;17.94
69857;BMP280;57147;53.582;10.112;2023-09-19T20:53:56;100492.44;;;18.13
69857;BMP280;57147;53.582;10.112;2023-09-19T20:58:57;100488.19;;;18.12
69857;BMP280;57147;53.582;10.112;2023-09-19T21:03:58;100487.75;;;18.10
69857;BMP280;57147;53.582;10.112;2023-09-19T21:09:01;100494.53;;;18.04
69857;BMP280;57147;53.582;10.112;2023-09-19T21:14:01;100500.31;;;18.06
69857;BMP280;57147;53.582;10.112;2023-09-19T21:19:02;100476.97;;;17.91
69857;BMP280;57147;53.582;10.112;2023-09-19T21:24:06;100479.34;;;17.96
69857;BMP280;57147;53.582;10.112;2023-09-19T21:29:07;100492.00;;;18.11
69857;BMP280;57147;53.582;10.112;2023-09-19T21:34:08;100486.19;;;18.09
69857;BMP280;57147;53.582;10.112;2023-09-19T21:39:11;100486.63;;;18.11
69857;BMP280;57147;53.582;10.112;2023-09-19T21:44:12;100461.22;;;17.74
69857;BMP280;57147;53.582;10.112;2023-09-19T21:49:12;100494.59;;;17.92
69857;BMP280;57147;53.582;10.112;2023-09-19T21:54:15;100534.41;;;17.86
69857;BMP280;57147;53.582;10.112;2023-09-19T21:59:16;100522.78;;;17.82
69857;BMP280;57147;53.582;10.112;2023-09-19T22:04:19;100520.47;;;17.81
69857;BMP280;57147;53.582;10.112;2023-09-19T22:09:22;100464.53;;;17.51
69857;BMP280;57147;53.582;10.112;2023-09-19T22:14:22;100534.25;;;17.79
69857;BMP280;57147;53.582;10.112;2023-09-19T22:19:23;100529.31;;;17.66
69857;BMP280;57147;53.582;10.112;2023-09-19T22:24:26;100533.31;;;17.72
69857;BMP280;57147;53.582;10.112;2023-09-19T22:29:27;100535.19;;;17.55
69857;BMP280;57147;53.582;10.112;2023-09-19T22:34:27;100479.56;;;16.81
69857;BMP280;57147;53.582;10.112;2023-09-19T22:39:30;100544.13;;;17.04
69857;BMP280;57147;53.582;10.112;2023-09-19T22:44:31;100538.63;;;16.85
69857;BMP280;57147;53.582;10.112;2023-09-19T22:49:32;100527.16;;;16.84
69857;BMP280;57147;53.582;10.112;2023-09-19T22:54:35;100517.09;;;16.81
69857;BMP280;57147;53.582;10.112;2023-09-19T22:59:35;100538.84;;;16.92
69857;BMP280;57147;53.582;10.112;2023-09-19T23:04:36;100523.53;;;16.64
69857;BMP280;57147;53.582;10.112;2023-09-19T23:09:39;100507.53;;;16.68
69857;BMP280;57147;53.582;10.112;2023-09-19T23:14:40;100517.47;;;16.68
69857;BMP280;57147;53.582;10.112;2023-09-19T23:19:40;100532.38;;;16.93
69857;BMP280;57147;53.582;10.112;2023-09-19T23:24:48;100551.94;;;16.93
69857;BMP280;57147;53.582;10.112;2023-09-19T23:29:49;100518.13;;;16.77
69857;BMP280;57147;53.582;10.112;2023-09-19T23:34:50;100562.25;;;17.07
69857;BMP280;57147;53.582;10.112;2023-09-19T23:39:53;100542.94;;;17.01
69857;BMP280;57147;53.582;10.112;2023-09-19T23:44:54;100502.03;;;16.77
69857;BMP280;57147;53.582;10.112;2023-09-19T23:49:54;100511.16;;;16.88
69857;BMP280;57147;53.582;10.112;2023-09-19T23:54:58;100561.94;;;17.24
69857;BMP280;57147;53.582;10.112;2023-09-19T23:59:58;100559.81;;;17.30
